createdAt,value
2023-10-02T00:00:35.655Z,44.35
2023-10-02T00:03:42.279Z,44.25
2023-10-02T00:06:45.573Z,44.37
2023-10-02T00:09:50.500Z,44.26
2023-10-02T00:12:59.622Z,43.94
2023-10-02T00:16:02.532Z,44.06
2023-10-02T00:19:19.533Z,44.20
2023-10-02T00:22:39.666Z,44.16
2023-10-02T00:25:53.299Z,44.07
2023-10-02T00:28:58.412Z,44.08
2023-10-02T00:32:01.686Z,44.17
2023-10-02T00:35:06.432Z,43.87
2023-10-02T00:38:09.106Z,44.35
2023-10-02T00:41:13.094Z,44.37
2023-10-02T00:44:15.160Z,43.97
2023-10-02T00:47:36.513Z,43.98
2023-10-02T00:50:50.379Z,44.10
2023-10-02T00:53:55.142Z,44.40
2023-10-02T00:56:57.727Z,44.14
2023-10-02T01:00:00.996Z,44.39
2023-10-02T01:03:06.114Z,44.00
2023-10-02T01:06:13.035Z,44.14
2023-10-02T01:09:19.448Z,44.01
2023-10-02T01:12:39.527Z,43.98
2023-10-02T01:15:50.168Z,43.97
2023-10-02T01:18:53.898Z,44.39
2023-10-02T01:21:58.240Z,43.98
2023-10-02T01:25:14.318Z,44.50
2023-10-02T01:28:21.565Z,44.41
2023-10-02T01:31:33.576Z,44.46
2023-10-02T01:34:41.086Z,44.50
2023-10-02T01:37:48.146Z,44.50
2023-10-02T01:40:56.186Z,44.04
2023-10-02T01:44:01.275Z,44.40
2023-10-02T01:47:05.670Z,44.27
2023-10-02T01:50:10.737Z,44.51
2023-10-02T01:53:30.395Z,44.53
2023-10-02T01:56:36.082Z,44.29
2023-10-02T01:59:38.684Z,44.15
2023-10-02T02:02:43.108Z,44.45
2023-10-02T02:05:47.904Z,44.35
2023-10-02T02:08:54.292Z,44.53
2023-10-02T02:12:09.120Z,44.21
2023-10-02T02:15:13.008Z,44.42
2023-10-02T02:18:16.601Z,44.04
2023-10-02T02:21:20.226Z,44.19
2023-10-02T02:24:24.052Z,44.50
2023-10-02T02:27:28.631Z,44.57
2023-10-02T02:30:41.476Z,44.51
2023-10-02T02:33:44.049Z,44.54
2023-10-02T02:36:48.370Z,44.40
2023-10-02T02:39:51.107Z,44.42
2023-10-02T02:42:55.169Z,44.22
2023-10-02T02:45:57.901Z,44.37
2023-10-02T02:49:01.329Z,44.49
2023-10-02T02:52:05.455Z,44.50
2023-10-02T02:55:14.151Z,44.29
2023-10-02T02:58:18.965Z,44.55
2023-10-02T03:01:27.577Z,44.48
2023-10-02T03:04:30.509Z,44.36
2023-10-02T03:07:37.651Z,44.53
2023-10-02T03:10:41.684Z,44.26
2023-10-02T03:13:46.771Z,44.45
2023-10-02T03:16:52.617Z,44.41
2023-10-02T03:19:55.243Z,44.13
2023-10-02T03:22:58.535Z,44.18
2023-10-02T03:26:01.201Z,44.50
2023-10-02T03:29:06.324Z,44.08
2023-10-02T03:32:12.332Z,44.39
2023-10-02T03:35:18.349Z,44.10
2023-10-02T03:38:21.775Z,44.47
2023-10-02T03:41:45.936Z,44.17
2023-10-02T03:44:50.724Z,44.64
2023-10-02T03:48:03.494Z,44.40
2023-10-02T03:51:06.452Z,44.69
2023-10-02T03:54:20.373Z,44.46
2023-10-02T03:57:36.952Z,44.69
2023-10-02T04:00:45.762Z,44.19
2023-10-02T04:04:11.234Z,44.17
2023-10-02T04:07:13.910Z,44.17
2023-10-02T04:10:20.657Z,44.40
2023-10-02T04:13:24.567Z,44.44
2023-10-02T04:16:31.898Z,44.68
2023-10-02T04:19:34.538Z,44.58
2023-10-02T04:22:38.126Z,44.59
2023-10-02T04:25:44.106Z,44.58
2023-10-02T04:28:51.052Z,44.70
2023-10-02T04:32:13.747Z,44.60
2023-10-02T04:35:30.754Z,44.26
2023-10-02T04:38:47.222Z,44.20
2023-10-02T04:42:09.770Z,44.65
2023-10-02T04:45:21.601Z,44.47
2023-10-02T04:48:28.459Z,44.32
2023-10-02T04:51:30.187Z,44.55
2023-10-02T04:54:33.085Z,44.29
2023-10-02T04:57:36.780Z,44.38
2023-10-02T05:01:01.802Z,44.66
2023-10-02T05:04:06.984Z,44.54
2023-10-02T05:07:08.549Z,44.56
2023-10-02T05:10:12.219Z,44.61
2023-10-02T05:13:14.536Z,43.49
2023-10-02T05:16:23.368Z,42.87
2023-10-02T05:19:41.303Z,42.57
2023-10-02T05:22:46.552Z,43.01
2023-10-02T05:25:49.224Z,43.42
2023-10-02T05:28:51.833Z,43.83
2023-10-02T05:31:54.542Z,43.50
2023-10-02T05:35:05.558Z,43.66
2023-10-02T05:38:09.533Z,43.79
2023-10-02T05:41:13.647Z,43.79
2023-10-02T05:44:24.239Z,43.66
2023-10-02T05:47:28.229Z,43.73
2023-10-02T05:50:34.267Z,43.95
2023-10-02T05:53:38.404Z,44.08
2023-10-02T05:56:41.974Z,43.88
2023-10-02T05:59:46.607Z,44.25
2023-10-02T06:03:02.029Z,43.98
2023-10-02T06:06:22.424Z,44.18
2023-10-02T06:09:30.332Z,43.93
2023-10-02T06:12:32.945Z,43.94
2023-10-02T06:15:49.053Z,44.08
2023-10-02T06:19:01.809Z,43.93
2023-10-02T06:22:08.795Z,44.01
2023-10-02T06:25:19.119Z,43.70
2023-10-02T06:28:26.747Z,43.91
2023-10-02T06:31:42.922Z,44.02
2023-10-02T06:34:45.938Z,44.15
2023-10-02T06:37:49.732Z,44.18
2023-10-02T06:40:58.249Z,43.88
2023-10-02T06:44:15.982Z,44.23
2023-10-02T06:47:18.854Z,43.78
2023-10-02T06:50:28.700Z,44.16
2023-10-02T06:53:33.184Z,43.20
2023-10-02T06:56:35.685Z,43.04
2023-10-02T06:59:39.234Z,43.52
2023-10-02T07:02:41.798Z,43.40
2023-10-02T07:05:44.445Z,43.50
2023-10-02T07:08:49.408Z,43.48
2023-10-02T07:11:52.898Z,43.70
2023-10-02T07:15:11.663Z,43.28
2023-10-02T07:18:14.347Z,43.52
2023-10-02T07:21:22.526Z,43.72
2023-10-02T07:24:30.235Z,44.02
2023-10-02T07:27:33.994Z,44.32
2023-10-02T07:30:36.524Z,44.37
2023-10-02T07:33:39.119Z,44.38
2023-10-02T07:36:46.167Z,44.80
2023-10-02T07:39:57.644Z,44.81
2023-10-02T07:43:02.045Z,45.08
2023-10-02T07:46:15.759Z,44.96
2023-10-02T07:49:18.714Z,44.90
2023-10-02T07:52:39.412Z,44.94
2023-10-02T07:55:49.107Z,44.81
2023-10-02T07:58:56.518Z,45.02
2023-10-02T08:02:19.861Z,45.18
2023-10-02T08:05:22.507Z,45.44
2023-10-02T08:08:27.645Z,45.13
2023-10-02T08:11:32.337Z,45.09
2023-10-02T08:14:41.220Z,45.01
2023-10-02T08:18:01.311Z,44.95
2023-10-02T08:21:05.337Z,45.09
2023-10-02T08:24:12.163Z,45.08
2023-10-02T08:27:16.371Z,44.87
2023-10-02T08:30:29.263Z,44.87
2023-10-02T08:33:45.023Z,44.51
2023-10-02T08:37:08.775Z,44.66
2023-10-02T08:40:15.931Z,44.54
2023-10-02T08:43:23.802Z,44.85
2023-10-02T08:46:26.454Z,44.82
2023-10-02T08:49:32.582Z,44.84
2023-10-02T08:52:42.902Z,44.71
2023-10-02T08:55:53.160Z,44.69
2023-10-02T08:59:17.203Z,44.72
2023-10-02T09:02:19.934Z,44.78
2023-10-02T09:05:22.650Z,44.54
2023-10-02T09:08:25.370Z,44.64
2023-10-02T09:11:35.260Z,44.82
2023-10-02T09:14:42.367Z,44.83
2023-10-02T09:17:46.032Z,44.89
2023-10-02T09:20:55.197Z,44.60
2023-10-02T09:24:02.091Z,44.51
2023-10-02T09:27:18.846Z,44.66
2023-10-02T09:30:29.280Z,44.40
2023-10-02T09:33:45.784Z,44.58
2023-10-02T09:37:07.850Z,44.68
2023-10-02T09:40:21.337Z,44.67
2023-10-02T09:43:25.778Z,44.66
2023-10-02T09:46:34.773Z,44.42
2023-10-02T09:49:41.364Z,44.58
2023-10-02T09:52:59.337Z,44.09
2023-10-02T09:56:11.786Z,44.35
2023-10-02T09:59:18.734Z,44.40
2023-10-02T10:02:41.326Z,44.08
2023-10-02T10:06:29.136Z,44.16
2023-10-02T10:09:50.774Z,44.24
2023-10-02T10:12:55.448Z,44.25
2023-10-02T10:16:46.104Z,43.82
2023-10-02T10:20:24.934Z,44.21
2023-10-02T10:23:35.228Z,43.92
2023-10-02T10:26:39.698Z,44.08
2023-10-02T10:29:43.481Z,43.73
2023-10-02T10:32:46.329Z,43.88
2023-10-02T10:35:51.189Z,43.72
2023-10-02T10:38:55.936Z,43.48
2023-10-02T10:42:03.175Z,43.68
2023-10-02T10:45:11.990Z,43.78
2023-10-02T10:48:23.248Z,43.50
2023-10-02T10:51:29.242Z,43.75
2023-10-02T10:54:49.784Z,43.62
2023-10-02T10:57:55.292Z,43.53
2023-10-02T11:00:59.638Z,43.85
2023-10-02T11:04:04.378Z,43.86
2023-10-02T11:07:20.670Z,43.83
2023-10-02T11:10:26.966Z,43.82
2023-10-02T11:13:30.967Z,43.52
2023-10-02T11:16:37.312Z,43.94
2023-10-02T11:19:47.212Z,43.52
2023-10-02T11:22:52.251Z,43.73
2023-10-02T11:25:56.114Z,43.33
2023-10-02T11:28:59.042Z,43.52
2023-10-02T11:32:20.544Z,43.70
2023-10-02T11:35:30.257Z,43.36
2023-10-02T11:38:34.855Z,43.77
2023-10-02T11:41:40.724Z,43.82
2023-10-02T11:44:43.375Z,43.83
2023-10-02T11:47:47.585Z,43.64
2023-10-02T11:50:56.640Z,43.67
2023-10-02T11:54:02.194Z,43.47
2023-10-02T11:57:10.055Z,44.02
2023-10-02T12:00:14.479Z,43.82
2023-10-02T12:03:19.544Z,44.06
2023-10-02T12:06:23.220Z,44.29
2023-10-02T12:09:29.049Z,44.18
2023-10-02T12:12:31.729Z,44.37
2023-10-02T12:15:34.278Z,44.51
2023-10-02T12:18:38.026Z,44.45
2023-10-02T12:21:46.243Z,44.61
2023-10-02T12:24:55.366Z,44.81
2023-10-02T12:27:57.961Z,45.03
2023-10-02T12:31:00.915Z,45.51
2023-10-02T12:34:03.345Z,45.85
2023-10-02T12:37:06.725Z,46.21
2023-10-02T12:40:13.794Z,46.57
2023-10-02T12:43:17.541Z,46.53
2023-10-02T12:46:20.197Z,46.82
2023-10-02T12:49:22.836Z,46.62
2023-10-02T12:52:25.458Z,47.00
2023-10-02T12:55:30.346Z,46.82
2023-10-02T12:58:33.118Z,46.81
2023-10-02T13:01:35.805Z,46.76
2023-10-02T13:04:38.680Z,45.67
2023-10-02T13:07:42.746Z,45.73
2023-10-02T13:10:46.846Z,45.31
2023-10-02T13:13:52.437Z,45.40
2023-10-02T13:16:55.373Z,45.33
2023-10-02T13:19:58.270Z,45.06
2023-10-02T13:23:01.627Z,45.02
2023-10-02T13:26:07.501Z,44.69
2023-10-02T13:29:10.963Z,44.73
2023-10-02T13:32:13.833Z,44.54
2023-10-02T13:35:16.691Z,44.48
2023-10-02T13:38:19.252Z,44.32
2023-10-02T13:41:23.544Z,44.31
2023-10-02T13:44:26.234Z,44.16
2023-10-02T13:47:36.890Z,44.17
2023-10-02T13:50:56.660Z,44.34
2023-10-02T13:54:03.398Z,44.06
2023-10-02T13:57:08.824Z,44.17
2023-10-02T14:00:12.690Z,44.10
2023-10-02T14:03:15.415Z,44.24
2023-10-02T14:06:19.214Z,44.34
2023-10-02T14:09:26.634Z,44.24
2023-10-02T14:12:31.553Z,44.51
2023-10-02T14:15:36.000Z,44.03
2023-10-02T14:18:38.975Z,44.38
2023-10-02T14:21:41.594Z,44.53
2023-10-02T14:24:44.137Z,44.49
2023-10-02T14:27:48.003Z,44.58
2023-10-02T14:30:50.817Z,44.43
2023-10-02T14:33:54.385Z,44.52
2023-10-02T14:36:56.961Z,44.39
2023-10-02T14:40:00.119Z,44.23
2023-10-02T14:43:05.737Z,44.01
2023-10-02T14:46:08.726Z,43.96
2023-10-02T14:49:12.287Z,44.04
2023-10-02T14:52:15.089Z,43.79
2023-10-02T14:55:19.126Z,44.13
2023-10-02T14:58:23.507Z,43.87
2023-10-02T15:01:26.766Z,43.78
2023-10-02T15:04:29.330Z,44.13
2023-10-02T15:07:32.069Z,44.04
2023-10-02T15:10:36.747Z,44.00
2023-10-02T15:13:40.930Z,43.95
2023-10-02T15:16:43.560Z,43.83
2023-10-02T15:19:46.100Z,44.11
2023-10-02T15:22:50.227Z,44.18
2023-10-02T15:25:52.989Z,44.27
2023-10-02T15:28:57.421Z,43.99
2023-10-02T15:32:00.033Z,44.17
2023-10-02T15:35:06.226Z,44.19
2023-10-02T15:38:08.938Z,44.16
2023-10-02T15:41:27.785Z,43.97
2023-10-02T15:44:31.840Z,44.01
2023-10-02T15:47:35.036Z,44.33
2023-10-02T15:50:37.743Z,44.25
2023-10-02T15:53:40.393Z,44.52
2023-10-02T15:56:43.010Z,44.43
2023-10-02T15:59:46.931Z,44.40
2023-10-02T16:02:51.384Z,44.10
2023-10-02T16:05:53.973Z,44.45
2023-10-02T16:08:58.028Z,44.47
2023-10-02T16:12:00.661Z,44.33
2023-10-02T16:15:05.743Z,44.34
2023-10-02T16:18:09.452Z,44.25
2023-10-02T16:21:12.948Z,44.47
2023-10-02T16:24:15.497Z,44.24
2023-10-02T16:27:20.291Z,44.20
2023-10-02T16:30:25.829Z,44.29
2023-10-02T16:33:28.595Z,44.64
2023-10-02T16:36:33.665Z,44.57
2023-10-02T16:39:36.245Z,44.56
2023-10-02T16:42:39.197Z,44.57
2023-10-02T16:45:48.408Z,44.23
2023-10-02T16:48:51.233Z,44.18
2023-10-02T16:51:55.105Z,44.24
2023-10-02T16:54:57.645Z,44.33
2023-10-02T16:58:00.403Z,44.67
2023-10-02T17:01:08.771Z,44.32
2023-10-02T17:04:11.467Z,44.55
2023-10-02T17:07:14.813Z,44.53
2023-10-02T17:10:21.232Z,44.27
2023-10-02T17:13:23.815Z,44.37
2023-10-02T17:16:27.794Z,44.69
2023-10-02T17:19:30.346Z,44.37
2023-10-02T17:22:34.844Z,44.38
2023-10-02T17:25:38.252Z,44.34
2023-10-02T17:28:40.802Z,44.41
2023-10-02T17:31:44.893Z,44.50
2023-10-02T17:34:47.476Z,44.90
2023-10-02T17:37:50.445Z,44.95
2023-10-02T17:40:54.851Z,45.01
2023-10-02T17:43:57.590Z,44.58
2023-10-02T17:47:01.619Z,44.67
2023-10-02T17:50:05.912Z,44.83
2023-10-02T17:53:08.803Z,44.88
2023-10-02T17:56:11.479Z,44.68
2023-10-02T17:59:15.981Z,44.87
2023-10-02T18:02:20.338Z,44.80
2023-10-02T18:05:22.995Z,45.17
2023-10-02T18:08:26.546Z,45.33
2023-10-02T18:11:29.321Z,45.46
2023-10-02T18:14:34.753Z,45.52
2023-10-02T18:17:39.084Z,45.33
2023-10-02T18:20:44.511Z,45.62
2023-10-02T18:23:47.917Z,45.52
2023-10-02T18:26:51.522Z,45.39
2023-10-02T18:29:54.138Z,45.67
2023-10-02T18:32:58.898Z,45.43
2023-10-02T18:36:04.806Z,45.21
2023-10-02T18:39:13.870Z,45.32
2023-10-02T18:42:19.091Z,45.29
2023-10-02T18:45:23.308Z,45.73
2023-10-02T18:48:27.237Z,45.32
2023-10-02T18:51:30.923Z,45.72
2023-10-02T18:54:33.486Z,45.60
2023-10-02T18:57:39.981Z,45.38
2023-10-02T19:00:42.581Z,45.37
2023-10-02T19:03:47.383Z,45.84
2023-10-02T19:06:50.173Z,45.73
2023-10-02T19:09:52.853Z,45.82
2023-10-02T19:12:55.590Z,45.70
2023-10-02T19:15:58.269Z,45.50
2023-10-02T19:19:02.414Z,45.49
2023-10-02T19:22:06.693Z,45.34
2023-10-02T19:25:10.661Z,45.34
2023-10-02T19:28:13.959Z,45.36
2023-10-02T19:31:17.247Z,45.65
2023-10-02T19:34:21.170Z,45.46
2023-10-02T19:37:23.785Z,45.49
2023-10-02T19:40:28.015Z,45.47
2023-10-02T19:43:32.081Z,45.60
2023-10-02T19:46:35.890Z,45.82
2023-10-02T19:49:39.968Z,45.56
2023-10-02T19:52:42.815Z,45.49
2023-10-02T19:55:46.650Z,45.39
2023-10-02T19:58:50.238Z,45.80
2023-10-02T20:01:54.394Z,45.57
2023-10-02T20:04:58.695Z,45.65
2023-10-02T20:08:02.111Z,45.83
2023-10-02T20:11:05.457Z,45.44
2023-10-02T20:14:08.344Z,45.34
2023-10-02T20:17:11.220Z,45.75
2023-10-02T20:20:15.283Z,45.34
2023-10-02T20:23:18.318Z,45.57
2023-10-02T20:26:21.161Z,45.46
2023-10-02T20:29:23.830Z,45.50
2023-10-02T20:32:27.943Z,45.57
2023-10-02T20:35:36.799Z,45.59
2023-10-02T20:38:39.448Z,45.74
2023-10-02T20:41:42.083Z,45.57
2023-10-02T20:44:44.747Z,45.53
2023-10-02T20:47:47.413Z,45.25
2023-10-02T20:50:51.439Z,45.47
2023-10-02T20:53:54.421Z,45.65
2023-10-02T20:56:58.337Z,45.63
2023-10-02T21:00:01.019Z,45.23
2023-10-02T21:03:04.311Z,45.17
2023-10-02T21:06:09.854Z,45.39
2023-10-02T21:09:16.609Z,45.28
2023-10-02T21:12:19.284Z,45.34
2023-10-02T21:15:21.890Z,45.30
2023-10-02T21:18:24.632Z,45.21
2023-10-02T21:21:28.717Z,45.11
2023-10-02T21:24:32.273Z,45.23
2023-10-02T21:27:34.876Z,45.14
2023-10-02T21:30:37.405Z,45.07
2023-10-02T21:33:39.931Z,44.91
2023-10-02T21:36:43.842Z,45.20
2023-10-02T21:39:46.379Z,45.22
2023-10-02T21:42:48.891Z,45.00
2023-10-02T21:45:51.511Z,44.91
2023-10-02T21:48:54.067Z,45.15
2023-10-02T21:51:58.821Z,44.96
2023-10-02T21:55:05.121Z,45.24
2023-10-02T21:58:07.725Z,44.86
2023-10-02T22:01:12.028Z,45.29
2023-10-02T22:04:15.665Z,45.04
2023-10-02T22:07:20.461Z,44.82
2023-10-02T22:10:25.377Z,45.14
2023-10-02T22:13:30.564Z,45.11
2023-10-02T22:16:38.875Z,44.80
2023-10-02T22:19:41.678Z,45.19
2023-10-02T22:22:46.331Z,45.15
2023-10-02T22:25:49.560Z,44.71
2023-10-02T22:28:52.164Z,44.71
2023-10-02T22:31:54.683Z,45.18
2023-10-02T22:34:57.564Z,45.04
2023-10-02T22:38:01.444Z,44.84
2023-10-02T22:41:05.160Z,44.78
2023-10-02T22:44:08.473Z,44.92
2023-10-02T22:47:11.690Z,44.72
2023-10-02T22:50:14.941Z,45.07
2023-10-02T22:53:19.811Z,44.95
2023-10-02T22:56:22.392Z,44.79
2023-10-02T22:59:25.042Z,44.99
2023-10-02T23:02:28.086Z,44.95
2023-10-02T23:05:30.793Z,44.96
2023-10-02T23:08:35.467Z,45.02
2023-10-02T23:11:42.022Z,44.96
2023-10-02T23:14:45.596Z,45.04
2023-10-02T23:17:48.450Z,44.85
2023-10-02T23:20:51.099Z,44.92
2023-10-02T23:23:55.823Z,44.84
2023-10-02T23:26:59.383Z,44.99
2023-10-02T23:30:01.959Z,44.53
2023-10-02T23:33:05.110Z,44.54
2023-10-02T23:36:09.523Z,44.75
2023-10-02T23:39:13.404Z,44.63
2023-10-02T23:42:15.937Z,44.57
2023-10-02T23:45:18.599Z,44.86
2023-10-02T23:48:24.081Z,44.71
2023-10-02T23:51:29.173Z,44.52
2023-10-02T23:54:37.822Z,44.97
2023-10-02T23:57:41.545Z,44.52
